Vashon Island, Washington
Current Conditions -  °F | °C
As of 7:53 PM on Sunday 23 Nov 2014 (Local Time) from KSEA Reporting Station
Scattered Clouds Scattered Clouds  
Wind Chill: 42°   Ceiling: Unl
Heat Index: 45°   Visibility: 10mi
Dew Point: 39°   Wind: 6mph
Humidity: 80%   Direction: 150°SSE
Pressure: 30.29"   Gusts: NA
Location:  47.4122°N, 122.472°W
Report Text: KSEA 240353Z 15005KT 10SM SCT200 07/04 A3029 RMK AO2 SLP263 T00720039
Loading
Personal Weather Stations






























Interactive Weather Map New forecast layout! Learn more

10-Day Weather Forecast

Advertisements
Track Severe Weather on mobile